Time;durP1;ratioP1;P1;durP2;ratioP2;P2;SDS_P1;SDS_P2;PMS_P1;PMS_P2;Temp;Humidity;BMP_temperature;BMP_pressure;BME280_temperature;BME280_humidity;BME280_pressure;Samples;Min_cycle;Max_cycle;Signal;HPM_P1;HPM_P2
2024/01/03 00:00:30;;;;;;;;;;;;;;;;;;5094917;28;920;-57
2024/01/03 00:02:55;;;;;;;;;;;;;;;;;;5094814;28;1893;-57
2024/01/03 00:05:25;;;;;;;;;;;;;;;;;;5094435;28;924;-57
2024/01/03 00:07:52;;;;;;;;;;;;;;;;;;5094827;28;1014;-57
2024/01/03 00:10:32;;;;;;;;;;;;;;;;;;5094460;28;828;-57
2024/01/03 00:12:58;;;;;;;;;;;;;;;;;;5095380;28;922;-58
2024/01/03 00:15:35;;;;;;;;;;;;;;;;;;5095217;28;812;-58
2024/01/03 00:18:04;;;;;;;;;;;;;;;;;;5095046;28;852;-58
2024/01/03 00:20:29;;;;;;;;;;;;;;;;;;5095055;28;903;-57
2024/01/03 00:22:54;;;;;;;;;;;;;;;;;;5094912;28;1970;-56
2024/01/03 00:25:25;;;;;;;;;;;;;;;;;;5094875;28;897;-57
2024/01/03 00:27:50;;;;;;;;;;;;;;;;;;5094742;28;1003;-57
2024/01/03 00:30:15;;;;;;;;;;;;;;;;;;5094867;28;979;-56
2024/01/03 00:32:41;;;;;;;;;;;;;;;;;;5094619;28;841;-56
2024/01/03 00:35:08;;;;;;;;;;;;;;;;;;5095206;28;840;-58
2024/01/03 00:37:34;;;;;;;;;;;;;;;;;;5094167;28;1023;-57
2024/01/03 00:40:00;;;;;;;;;;;;;;;;;;5094847;28;852;-58
2024/01/03 00:42:26;;;;;;;;;;;;;;;;;;5094620;28;1980;-57
2024/01/03 00:44:51;;;;;;;;;;;;;;;;;;5094735;28;916;-58
2024/01/03 00:47:18;;;;;;;;;;;;;;;;;;5094680;28;927;-57
2024/01/03 00:49:44;;;;;;;;;;;;;;;;;;5094378;28;825;-57
2024/01/03 00:52:09;;;;;;;;;;;;;;;;;;5095053;28;1467;-58
2024/01/03 00:54:35;;;;;;;;;;;;;;;;;;5095066;28;1003;-58
2024/01/03 00:57:00;;;;;;;;;;;;;;;;;;5094782;28;856;-58
2024/01/03 00:59:26;;;;;;;;;;;;;;;;;;5095174;28;887;-58
2024/01/03 01:01:52;;;;;;;;;;;;;;;;;;5094932;28;1909;-58
2024/01/03 01:04:17;;;;;;;;;;;;;;;;;;5093613;28;863;-59
2024/01/03 01:06:42;;;;;;;;;;;;;;;;;;5094706;28;892;-58
2024/01/03 01:09:08;;;;;;;;;;;;;;;;;;5095328;28;821;-57
2024/01/03 01:11:34;;;;;;;;;;;;;;;;;;5093930;28;802;-57
2024/01/03 01:13:59;;;;;;;;;;;;;;;;;;5094554;28;886;-58
2024/01/03 01:16:25;;;;;;;;;;;;;;;;;;5094546;28;1077;-58
2024/01/03 01:18:50;;;;;;;;;;;;;;;;;;5094605;28;895;-58
2024/01/03 01:21:16;;;;;;;;;;;;;;;;;;5093992;28;2010;-58
2024/01/03 01:23:42;;;;;;;;;;;;;;;;;;5094264;28;1282;-57
2024/01/03 01:26:10;;;;;;;;;;;;;;;;;;5094514;28;828;-58
2024/01/03 01:28:35;;;;;;;;;;;;;;;;;;5094504;28;966;-56
2024/01/03 01:31:01;;;;;;;;;;;;;;;;;;5094398;28;895;-57
2024/01/03 01:33:26;;;;;;;;;;;;;;;;;;5094009;28;907;-58
2024/01/03 01:35:51;;;;;;;;;;;;;;;;;;5093183;28;869;-58
2024/01/03 01:38:16;;;;;;;;;;;;;;;;;;5094041;28;891;-57
2024/01/03 01:40:42;;;;;;;;;;;;;;;;;;5093939;28;1184;-57
2024/01/03 01:43:07;;;;;;;;;;;;;;;;;;5094474;28;1958;-58
2024/01/03 01:45:32;;;;;;;;;;;;;;;;;;5093916;28;822;-58
2024/01/03 01:47:58;;;;;;;;;;;;;;;;;;5093883;28;891;-58
2024/01/03 01:50:24;;;;;;;;;;;;;;;;;;5093769;28;975;-58
2024/01/03 01:52:49;;;;;;;;;;;;;;;;;;5093915;28;1058;-58
2024/01/03 01:55:15;;;;;;;;;;;;;;;;;;5094293;28;1082;-58
2024/01/03 01:57:42;;;;;;;;;;;;;;;;;;5094015;28;1014;-57
2024/01/03 02:00:08;;;;;;;;;;;;;;;;;;5094011;28;974;-57
2024/01/03 02:02:35;;;;;;;;;;;;;;;;;;5093868;28;1953;-58
2024/01/03 02:05:00;;;;;;;;;;;;;;;;;;5094027;28;867;-57
2024/01/03 02:07:26;;;;;;;;;;;;;;;;;;5093719;28;939;-57
2024/01/03 02:09:52;;;;;;;;;;;;;;;;;;5094011;28;885;-57
2024/01/03 02:12:24;;;;;;;;;;;;;;;;;;5093693;28;883;-57
2024/01/03 02:14:49;;;;;;;;;;;;;;;;;;5093426;28;991;-58
2024/01/03 02:17:15;;;;;;;;;;;;;;;;;;5093584;28;1016;-58
2024/01/03 02:19:40;;;;;;;;;;;;;;;;;;5093650;28;927;-58
2024/01/03 02:22:05;;;;;;;;;;;;;;;;;;5094858;28;1910;-57
2024/01/03 02:24:31;;;;;;;;;;;;;;;;;;5097333;28;911;-57
2024/01/03 02:26:56;;;;;;;;;;;;;;;;;;5096375;28;1198;-57
2024/01/03 02:29:21;;;;;;;;;;;;;;;;;;5092287;28;1214;-58
2024/01/03 02:31:46;;;;;;;;;;;;;;;;;;5088850;28;1175;-58
2024/01/03 02:34:12;;;;;;;;;;;;;;;;;;5095015;28;1171;-57
2024/01/03 02:36:37;;;;;;;;;;;;;;;;;;5095561;28;1183;-57
2024/01/03 02:39:04;;;;;;;;;;;;;;;;;;5094661;28;1186;-57
2024/01/03 02:41:29;;;;;;;;;;;;;;;;;;5095111;28;1894;-57
2024/01/03 02:43:54;;;;;;;;;;;;;;;;;;5087694;28;1187;-58
2024/01/03 02:46:20;;;;;;;;;;;;;;;;;;5084372;28;1203;-58
2024/01/03 02:48:45;;;;;;;;;;;;;;;;;;5079557;28;1127;-58
2024/01/03 02:51:20;;;;;;;;;;;;;;;;;;5076826;28;990;-57
2024/01/03 02:53:45;;;;;;;;;;;;;;;;;;5077176;28;1014;-58
2024/01/03 02:56:11;;;;;;;;;;;;;;;;;;5076936;28;1233;-58
2024/01/03 02:58:37;;;;;;;;;;;;;;;;;;5075436;28;896;-58
2024/01/03 03:01:04;;;;;;;;;;;;;;;;;;5076634;28;1906;-57
2024/01/03 03:03:29;;;;;;;;;;;;;;;;;;5076445;28;841;-57
2024/01/03 03:05:55;;;;;;;;;;;;;;;;;;5076390;28;1121;-57
2024/01/03 03:08:20;;;;;;;;;;;;;;;;;;5076445;28;883;-57
2024/01/03 03:10:45;;;;;;;;;;;;;;;;;;5076722;28;939;-57
2024/01/03 03:13:11;;;;;;;;;;;;;;;;;;5076219;28;841;-57
2024/01/03 03:15:36;;;;;;;;;;;;;;;;;;5076182;28;812;-57
2024/01/03 03:18:01;;;;;;;;;;;;;;;;;;5076368;28;1185;-57
2024/01/03 03:20:27;;;;;;;;;;;;;;;;;;5076182;28;852;-57
2024/01/03 03:22:52;;;;;;;;;;;;;;;;;;5076185;28;1894;-58
2024/01/03 03:25:17;;;;;;;;;;;;;;;;;;5076435;28;991;-58
2024/01/03 03:27:42;;;;;;;;;;;;;;;;;;5076431;28;1066;-56
2024/01/03 03:30:08;;;;;;;;;;;;;;;;;;5076136;28;938;-57
2024/01/03 03:32:33;;;;;;;;;;;;;;;;;;5075767;28;808;-57
2024/01/03 03:34:58;;;;;;;;;;;;;;;;;;5075575;28;928;-57
2024/01/03 03:37:24;;;;;;;;;;;;;;;;;;5074566;28;836;-57
2024/01/03 03:39:50;;;;;;;;;;;;;;;;;;5074421;28;1336;-57
2024/01/03 03:42:18;;;;;;;;;;;;;;;;;;5075721;28;1902;-58
2024/01/03 03:44:43;;;;;;;;;;;;;;;;;;5075963;28;817;-57
2024/01/03 03:47:09;;;;;;;;;;;;;;;;;;5075745;28;991;-57
2024/01/03 03:49:34;;;;;;;;;;;;;;;;;;5057754;28;927;-57
2024/01/03 03:51:59;;;;;;;;;;;;;;;;;;5075611;28;1096;-57
2024/01/03 03:54:25;;;;;;;;;;;;;;;;;;5075905;28;995;-59
2024/01/03 03:56:50;;;;;;;;;;;;;;;;;;5075413;28;968;-58
2024/01/03 03:59:15;;;;;;;;;;;;;;;;;;5075569;28;947;-57
2024/01/03 04:01:47;;;;;;;;;;;;;;;;;;5075271;28;1898;-59
2024/01/03 04:04:12;;;;;;;;;;;;;;;;;;5075164;28;1047;-57
2024/01/03 04:06:41;;;;;;;;;;;;;;;;;;5075766;28;808;-57
2024/01/03 04:09:06;;;;;;;;;;;;;;;;;;5075604;28;826;-57
2024/01/03 04:11:31;;;;;;;;;;;;;;;;;;5075486;28;852;-57
2024/01/03 04:13:56;;;;;;;;;;;;;;;;;;5074991;28;1027;-58
2024/01/03 04:16:22;;;;;;;;;;;;;;;;;;5075106;28;893;-58
2024/01/03 04:18:47;;;;;;;;;;;;;;;;;;5075241;28;986;-59
2024/01/03 04:21:12;;;;;;;;;;;;;;;;;;5075541;28;1910;-57
2024/01/03 04:23:38;;;;;;;;;;;;;;;;;;5075760;28;983;-57
2024/01/03 04:26:03;;;;;;;;;;;;;;;;;;5075118;28;986;-56
2024/01/03 04:28:28;;;;;;;;;;;;;;;;;;5075275;28;887;-57
2024/01/03 04:30:53;;;;;;;;;;;;;;;;;;5074829;28;903;-57
2024/01/03 04:33:19;;;;;;;;;;;;;;;;;;5074030;28;1086;-56
2024/01/03 04:35:44;;;;;;;;;;;;;;;;;;5074660;28;1003;-59
2024/01/03 04:38:09;;;;;;;;;;;;;;;;;;5075227;28;947;-57
2024/01/03 04:40:34;;;;;;;;;;;;;;;;;;5075121;28;992;-58
2024/01/03 04:43:00;;;;;;;;;;;;;;;;;;5074376;28;1898;-57
2024/01/03 04:45:25;;;;;;;;;;;;;;;;;;5073954;28;1006;-58
2024/01/03 04:47:50;;;;;;;;;;;;;;;;;;5075204;28;872;-57
2024/01/03 04:50:17;;;;;;;;;;;;;;;;;;5075111;28;841;-57
2024/01/03 04:52:42;;;;;;;;;;;;;;;;;;5074748;28;844;-57
2024/01/03 04:55:08;;;;;;;;;;;;;;;;;;5074328;28;901;-57
2024/01/03 04:57:34;;;;;;;;;;;;;;;;;;5074770;28;793;-58
2024/01/03 04:59:59;;;;;;;;;;;;;;;;;;5073931;28;879;-57
2024/01/03 05:02:24;;;;;;;;;;;;;;;;;;5073173;28;1885;-58
2024/01/03 05:04:49;;;;;;;;;;;;;;;;;;5074623;28;852;-58
2024/01/03 05:07:15;;;;;;;;;;;;;;;;;;5074473;28;884;-57
2024/01/03 05:09:40;;;;;;;;;;;;;;;;;;5073944;28;1238;-57
2024/01/03 05:12:05;;;;;;;;;;;;;;;;;;5084036;28;1172;-57
2024/01/03 05:14:31;;;;;;;;;;;;;;;;;;5073508;28;2367;-57
2024/01/03 05:16:56;;;;;;;;;;;;;;;;;;5091334;28;1249;-58
2024/01/03 05:19:22;;;;;;;;;;;;;;;;;;5077875;28;1092;-58
2024/01/03 05:21:47;;;;;;;;;;;;;;;;;;5072316;28;1890;-58
2024/01/03 05:24:12;;;;;;;;;;;;;;;;;;5074166;28;1011;-58
2024/01/03 05:26:38;;;;;;;;;;;;;;;;;;5074485;28;939;-57
2024/01/03 05:29:03;;;;;;;;;;;;;;;;;;5074137;28;858;-57
2024/01/03 05:31:28;;;;;;;;;;;;;;;;;;5074138;28;939;-57
2024/01/03 05:33:54;;;;;;;;;;;;;;;;;;5073968;28;908;-57
2024/01/03 05:36:19;;;;;;;;;;;;;;;;;;5074020;28;935;-58
2024/01/03 05:38:44;;;;;;;;;;;;;;;;;;5073958;28;980;-57
2024/01/03 05:41:11;;;;;;;;;;;;;;;;;;5073746;28;1969;-58
2024/01/03 05:43:36;;;;;;;;;;;;;;;;;;5073667;28;860;-58
2024/01/03 05:46:01;;;;;;;;;;;;;;;;;;5073316;28;841;-58
2024/01/03 05:48:27;;;;;;;;;;;;;;;;;;5074170;28;635;-58
2024/01/03 05:50:52;;;;;;;;;;;;;;;;;;5074117;28;812;-57
2024/01/03 05:53:17;;;;;;;;;;;;;;;;;;5074322;28;912;-56
2024/01/03 05:55:42;;;;;;;;;;;;;;;;;;5074229;28;954;-58
2024/01/03 05:58:08;;;;;;;;;;;;;;;;;;5077004;28;1216;-56
2024/01/03 06:00:33;;;;;;;;;;;;;;;;;;5077359;28;1011;-57
2024/01/03 06:02:58;;;;;;;;;;;;;;;;;;5077292;28;1965;-57
2024/01/03 06:05:26;;;;;;;;;;;;;;;;;;5077729;28;915;-56
2024/01/03 06:07:51;;;;;;;;;;;;;;;;;;5076600;28;844;-56
2024/01/03 06:10:16;;;;;;;;;;;;;;;;;;5077695;28;1148;-57
2024/01/03 06:12:41;;;;;;;;;;;;;;;;;;5077562;28;912;-57
2024/01/03 06:15:07;;;;;;;;;;;;;;;;;;5077904;28;951;-56
2024/01/03 06:17:32;;;;;;;;;;;;;;;;;;5076299;28;809;-56
2024/01/03 06:19:57;;;;;;;;;;;;;;;;;;5077391;28;828;-56
2024/01/03 06:22:23;;;;;;;;;;;;;;;;;;5077346;28;1897;-55
2024/01/03 06:24:48;;;;;;;;;;;;;;;;;;5077473;28;942;-56
2024/01/03 06:27:13;;;;;;;;;;;;;;;;;;5076869;28;1124;-56
2024/01/03 06:29:38;;;;;;;;;;;;;;;;;;5077040;28;881;-56
2024/01/03 06:32:04;;;;;;;;;;;;;;;;;;5077033;28;1020;-57
2024/01/03 06:34:29;;;;;;;;;;;;;;;;;;5077140;28;844;-56
2024/01/03 06:36:54;;;;;;;;;;;;;;;;;;5076719;28;1062;-57
2024/01/03 06:39:20;;;;;;;;;;;;;;;;;;5076537;28;860;-56
2024/01/03 06:41:45;;;;;;;;;;;;;;;;;;5076502;28;1973;-56
2024/01/03 06:44:10;;;;;;;;;;;;;;;;;;5076673;28;1300;-56
2024/01/03 06:46:35;;;;;;;;;;;;;;;;;;5077201;28;1089;-56
2024/01/03 06:49:01;;;;;;;;;;;;;;;;;;5076509;28;812;-56
2024/01/03 06:51:26;;;;;;;;;;;;;;;;;;5076936;28;851;-57
2024/01/03 06:53:51;;;;;;;;;;;;;;;;;;5076834;28;995;-56
2024/01/03 06:56:20;;;;;;;;;;;;;;;;;;5076602;28;1018;-57
2024/01/03 06:58:45;;;;;;;;;;;;;;;;;;5076668;28;831;-57
2024/01/03 07:01:11;;;;;;;;;;;;;;;;;;5076356;28;1972;-56
2024/01/03 07:03:37;;;;;;;;;;;;;;;;;;5079828;28;1214;-57
2024/01/03 07:06:02;;;;;;;;;;;;;;;;;;5093477;28;1215;-56
2024/01/03 07:08:27;;;;;;;;;;;;;;;;;;5092711;28;1159;-57
2024/01/03 07:10:52;;;;;;;;;;;;;;;;;;5093624;28;1219;-57
2024/01/03 07:13:18;;;;;;;;;;;;;;;;;;5083859;28;1147;-57
2024/01/03 07:15:44;;;;;;;;;;;;;;;;;;5093275;28;1151;-56
2024/01/03 07:18:09;;;;;;;;;;;;;;;;;;5086759;28;1144;-56
2024/01/03 07:20:35;;;;;;;;;;;;;;;;;;5096566;28;832;-57
2024/01/03 07:23:00;;;;;;;;;;;;;;;;;;5096299;28;1963;-57
2024/01/03 07:25:25;;;;;;;;;;;;;;;;;;5096755;28;883;-58
2024/01/03 07:27:51;;;;;;;;;;;;;;;;;;5096299;28;970;-56
2024/01/03 07:30:16;;;;;;;;;;;;;;;;;;5096557;28;1120;-56
2024/01/03 07:32:41;;;;;;;;;;;;;;;;;;5096472;28;966;-56
2024/01/03 07:35:07;;;;;;;;;;;;;;;;;;5096170;28;963;-56
2024/01/03 07:37:32;;;;;;;;;;;;;;;;;;5096126;28;887;-57
2024/01/03 07:39:57;;;;;;;;;;;;;;;;;;5096308;28;840;-56
2024/01/03 07:42:23;;;;;;;;;;;;;;;;;;5096203;28;1976;-57
2024/01/03 07:44:48;;;;;;;;;;;;;;;;;;5096172;28;824;-56
2024/01/03 07:47:13;;;;;;;;;;;;;;;;;;5096190;28;990;-56
2024/01/03 07:49:39;;;;;;;;;;;;;;;;;;5096365;28;844;-56
2024/01/03 07:52:04;;;;;;;;;;;;;;;;;;5095683;28;1222;-56
2024/01/03 07:54:31;;;;;;;;;;;;;;;;;;5096197;28;958;-56
2024/01/03 07:56:57;;;;;;;;;;;;;;;;;;5095980;28;1168;-57
2024/01/03 07:59:22;;;;;;;;;;;;;;;;;;5096105;28;836;-56
2024/01/03 08:01:48;;;;;;;;;;;;;;;;;;5094330;28;1910;-57
2024/01/03 08:04:13;;;;;;;;;;;;;;;;;;5095955;28;777;-56
2024/01/03 08:06:38;;;;;;;;;;;;;;;;;;5094749;28;888;-57
2024/01/03 08:09:04;;;;;;;;;;;;;;;;;;5095770;28;892;-56
2024/01/03 08:11:29;;;;;;;;;;;;;;;;;;5095810;28;967;-57
2024/01/03 08:13:54;;;;;;;;;;;;;;;;;;5095044;28;824;-57
2024/01/03 08:16:20;;;;;;;;;;;;;;;;;;5093979;28;867;-56
2024/01/03 08:18:46;;;;;;;;;;;;;;;;;;5093373;28;919;-57
2024/01/03 08:21:11;;;;;;;;;;;;;;;;;;5094773;28;1952;-57
2024/01/03 08:23:37;;;;;;;;;;;;;;;;;;5094961;28;896;-59
2024/01/03 08:26:09;;;;;;;;;;;;;;;;;;5095087;28;972;-57
2024/01/03 08:28:41;;;;;;;;;;;;;;;;;;5093861;28;1288;-57
2024/01/03 08:31:08;;;;;;;;;;;;;;;;;;5094742;28;932;-56
2024/01/03 08:33:36;;;;;;;;;;;;;;;;;;5095288;28;833;-58
2024/01/03 08:36:04;;;;;;;;;;;;;;;;;;5093758;28;1218;-58
2024/01/03 08:38:30;;;;;;;;;;;;;;;;;;5094876;28;919;-58
2024/01/03 08:40:55;;;;;;;;;;;;;;;;;;5093530;28;859;-57
2024/01/03 08:43:20;;;;;;;;;;;;;;;;;;5095186;28;1894;-57
2024/01/03 08:45:45;;;;;;;;;;;;;;;;;;5095106;28;880;-57
2024/01/03 08:48:11;;;;;;;;;;;;;;;;;;5095004;28;967;-59
2024/01/03 08:50:36;;;;;;;;;;;;;;;;;;5094852;28;1030;-57
2024/01/03 08:53:01;;;;;;;;;;;;;;;;;;5094293;28;840;-57
2024/01/03 08:55:27;;;;;;;;;;;;;;;;;;5094079;28;1029;-57
2024/01/03 08:57:56;;;;;;;;;;;;;;;;;;5079876;28;1194;-58
2024/01/03 09:00:21;;;;;;;;;;;;;;;;;;5090643;28;1190;-56
2024/01/03 09:02:47;;;;;;;;;;;;;;;;;;5083543;28;1882;-58
2024/01/03 09:05:13;;;;;;;;;;;;;;;;;;5086186;28;1188;-58
2024/01/03 09:07:38;;;;;;;;;;;;;;;;;;5075506;28;1147;-58
2024/01/03 09:10:04;;;;;;;;;;;;;;;;;;5072392;28;1073;-57
2024/01/03 09:12:29;;;;;;;;;;;;;;;;;;5091950;28;1139;-57
2024/01/03 09:14:55;;;;;;;;;;;;;;;;;;5078094;28;1134;-56
2024/01/03 09:17:20;;;;;;;;;;;;;;;;;;5076473;28;1156;-56
2024/01/03 09:19:45;;;;;;;;;;;;;;;;;;5092439;28;1199;-57
2024/01/03 09:22:11;;;;;;;;;;;;;;;;;;5094744;28;1894;-56
2024/01/03 09:24:36;;;;;;;;;;;;;;;;;;5094606;28;1057;-57
2024/01/03 09:27:03;;;;;;;;;;;;;;;;;;5093305;28;1125;-56
2024/01/03 09:29:29;;;;;;;;;;;;;;;;;;5094717;28;908;-57
2024/01/03 09:31:54;;;;;;;;;;;;;;;;;;5095771;28;859;-56
2024/01/03 09:34:20;;;;;;;;;;;;;;;;;;5098613;28;867;-56
2024/01/03 09:36:45;;;;;;;;;;;;;;;;;;5098575;28;924;-56
2024/01/03 09:39:12;;;;;;;;;;;;;;;;;;5098763;28;820;-56
2024/01/03 09:41:37;;;;;;;;;;;;;;;;;;5098467;28;1895;-56
2024/01/03 09:44:03;;;;;;;;;;;;;;;;;;5097952;28;1059;-56
2024/01/03 09:46:28;;;;;;;;;;;;;;;;;;5098016;28;851;-56
2024/01/03 09:48:53;;;;;;;;;;;;;;;;;;5098326;28;1102;-56
2024/01/03 09:51:19;;;;;;;;;;;;;;;;;;5097990;28;844;-57
2024/01/03 09:53:45;;;;;;;;;;;;;;;;;;5098110;28;1343;-58
2024/01/03 09:56:10;;;;;;;;;;;;;;;;;;5098052;28;824;-58
2024/01/03 09:58:35;;;;;;;;;;;;;;;;;;5098445;28;879;-57
2024/01/03 10:01:01;;;;;;;;;;;;;;;;;;5098142;28;828;-57
2024/01/03 10:03:27;;;;;;;;;;;;;;;;;;5097467;28;1902;-58
2024/01/03 10:06:13;;;;;;;;;;;;;;;;;;5097640;28;856;-58
2024/01/03 10:08:39;;;;;;;;;;;;;;;;;;5096605;28;1655;-58
2024/01/03 10:11:34;;;;;;;;;;;;;;;;;;5096371;28;1211;-57
2024/01/03 10:14:13;;;;;;;;;;;;;;;;;;5092659;28;1300;-56
2024/01/03 10:16:39;;;;;;;;;;;;;;;;;;5097661;28;944;-56
2024/01/03 10:19:08;;;;;;;;;;;;;;;;;;5096150;28;1060;-56
2024/01/03 10:21:33;;;;;;;;;;;;;;;;;;5097248;28;1953;-55
2024/01/03 10:24:03;;;;;;;;;;;;;;;;;;5097144;28;828;-56
2024/01/03 10:26:28;;;;;;;;;;;;;;;;;;5097118;28;872;-56
2024/01/03 10:29:07;;;;;;;;;;;;;;;;;;5097541;28;844;-57
2024/01/03 10:31:32;;;;;;;;;;;;;;;;;;5096817;28;895;-56
2024/01/03 10:33:57;;;;;;;;;;;;;;;;;;5097389;28;879;-57
2024/01/03 10:36:23;;;;;;;;;;;;;;;;;;5096725;28;927;-56
2024/01/03 10:38:49;;;;;;;;;;;;;;;;;;5096855;28;773;-57
2024/01/03 10:41:15;;;;;;;;;;;;;;;;;;5095661;28;1890;-56
2024/01/03 10:43:42;;;;;;;;;;;;;;;;;;5095674;28;1014;-57
2024/01/03 10:46:08;;;;;;;;;;;;;;;;;;5097312;28;845;-56
2024/01/03 10:48:33;;;;;;;;;;;;;;;;;;5096885;28;907;-59
2024/01/03 10:50:59;;;;;;;;;;;;;;;;;;5096415;28;971;-56
2024/01/03 10:53:26;;;;;;;;;;;;;;;;;;5096838;28;924;-56
2024/01/03 10:55:54;;;;;;;;;;;;;;;;;;5097379;28;1058;-58
2024/01/03 10:58:20;;;;;;;;;;;;;;;;;;5097102;28;905;-57
2024/01/03 11:00:53;;;;;;;;;;;;;;;;;;5097047;28;938;-58
2024/01/03 11:03:37;;;;;;;;;;;;;;;;;;5097035;28;1902;-57
2024/01/03 11:06:06;;;;;;;;;;;;;;;;;;5096912;28;841;-57
2024/01/03 11:08:41;;;;;;;;;;;;;;;;;;5097445;28;800;-58
2024/01/03 11:11:06;;;;;;;;;;;;;;;;;;5095581;28;911;-60
2024/01/03 11:13:32;;;;;;;;;;;;;;;;;;5096746;28;848;-59
2024/01/03 11:15:59;;;;;;;;;;;;;;;;;;5096936;28;1370;-58
2024/01/03 11:18:39;;;;;;;;;;;;;;;;;;5096971;28;895;-58
2024/01/03 11:21:30;;;;;;;;;;;;;;;;;;5097141;28;911;-57
2024/01/03 11:23:58;;;;;;;;;;;;;;;;;;5096638;28;931;-58
2024/01/03 11:26:42;;;;;;;;;;;;;;;;;;5096928;28;960;-57
2024/01/03 11:29:08;;;;;;;;;;;;;;;;;;5096676;28;832;-57
2024/01/03 11:31:51;;;;;;;;;;;;;;;;;;5096014;28;840;-57
2024/01/03 11:34:44;;;;;;;;;;;;;;;;;;5096368;28;848;-58
2024/01/03 11:37:09;;;;;;;;;;;;;;;;;;5094650;28;1735;-57
2024/01/03 11:39:35;;;;;;;;;;;;;;;;;;5096008;28;896;-57
2024/01/03 11:42:01;;;;;;;;;;;;;;;;;;5095788;28;1964;-58
2024/01/03 11:44:26;;;;;;;;;;;;;;;;;;5096233;28;1027;-57
2024/01/03 11:47:04;;;;;;;;;;;;;;;;;;5095798;28;1039;-58
2024/01/03 11:49:30;;;;;;;;;;;;;;;;;;5095604;28;867;-57
2024/01/03 11:51:57;;;;;;;;;;;;;;;;;;5095470;28;1221;-58
2024/01/03 11:54:23;;;;;;;;;;;;;;;;;;5095554;28;1091;-57
2024/01/03 11:56:48;;;;;;;;;;;;;;;;;;5096227;28;895;-57
2024/01/03 11:59:18;;;;;;;;;;;;;;;;;;5095862;28;955;-58
2024/01/03 12:01:54;;;;;;;;;;;;;;;;;;5095891;28;2325;-62
2024/01/03 12:04:19;;;;;;;;;;;;;;;;;;5095778;28;840;-57
2024/01/03 12:06:45;;;;;;;;;;;;;;;;;;5095408;28;872;-58
2024/01/03 12:09:10;;;;;;;;;;;;;;;;;;5095567;28;861;-58
2024/01/03 12:11:35;;;;;;;;;;;;;;;;;;5095619;28;963;-58
2024/01/03 12:14:01;;;;;;;;;;;;;;;;;;5095452;28;797;-58
2024/01/03 12:16:26;;;;;;;;;;;;;;;;;;5095675;28;1007;-58
2024/01/03 12:18:52;;;;;;;;;;;;;;;;;;5095405;28;1705;-57
2024/01/03 12:21:18;;;;;;;;;;;;;;;;;;5095038;28;1893;-57
2024/01/03 12:23:56;;;;;;;;;;;;;;;;;;5095438;28;899;-58
2024/01/03 12:26:21;;;;;;;;;;;;;;;;;;5093889;28;1385;-57
2024/01/03 12:28:46;;;;;;;;;;;;;;;;;;5094761;28;866;-58
2024/01/03 12:31:18;;;;;;;;;;;;;;;;;;5095316;28;816;-58
2024/01/03 12:33:44;;;;;;;;;;;;;;;;;;5095761;28;1002;-58
2024/01/03 12:36:09;;;;;;;;;;;;;;;;;;5095196;28;895;-58
2024/01/03 12:38:34;;;;;;;;;;;;;;;;;;5095348;28;880;-57
2024/01/03 12:41:00;;;;;;;;;;;;;;;;;;5094755;28;887;-58
2024/01/03 12:43:25;;;;;;;;;;;;;;;;;;5095445;28;1951;-57
2024/01/03 12:45:50;;;;;;;;;;;;;;;;;;5095222;28;884;-57
2024/01/03 12:48:16;;;;;;;;;;;;;;;;;;5090160;28;1222;-58
2024/01/03 12:50:42;;;;;;;;;;;;;;;;;;5077928;28;1219;-57
2024/01/03 12:53:07;;;;;;;;;;;;;;;;;;5084041;28;1140;-58
2024/01/03 12:55:33;;;;;;;;;;;;;;;;;;5092593;28;1211;-58
2024/01/03 12:57:58;;;;;;;;;;;;;;;;;;5092610;28;1206;-58
2024/01/03 13:00:23;;;;;;;;;;;;;;;;;;5093334;28;1226;-57
2024/01/03 13:02:49;;;;;;;;;;;;;;;;;;5077893;28;1878;-57
2024/01/03 13:05:14;;;;;;;;;;;;;;;;;;5079135;28;1172;-57
2024/01/03 13:07:39;;;;;;;;;;;;;;;;;;5072369;28;1187;-57
2024/01/03 13:10:06;;;;;;;;;;;;;;;;;;5074581;28;1907;-58
2024/01/03 13:12:31;;;;;;;;;;;;;;;;;;5088217;28;1139;-57
2024/01/03 13:14:56;;;;;;;;;;;;;;;;;;5092756;28;1191;-57
2024/01/03 13:17:23;;;;;;;;;;;;;;;;;;5089709;28;1195;-58
2024/01/03 13:19:48;;;;;;;;;;;;;;;;;;5089133;28;1179;-57
2024/01/03 13:22:13;;;;;;;;;;;;;;;;;;5094587;28;1933;-58
2024/01/03 13:24:40;;;;;;;;;;;;;;;;;;5095131;28;908;-57
2024/01/03 13:27:06;;;;;;;;;;;;;;;;;;5095091;28;820;-57
2024/01/03 13:29:32;;;;;;;;;;;;;;;;;;5094407;28;924;-57
2024/01/03 13:31:57;;;;;;;;;;;;;;;;;;5094828;28;845;-58
2024/01/03 13:34:22;;;;;;;;;;;;;;;;;;5094168;28;904;-57
2024/01/03 13:36:48;;;;;;;;;;;;;;;;;;5093992;28;1003;-57
2024/01/03 13:39:13;;;;;;;;;;;;;;;;;;5094947;28;832;-57
2024/01/03 13:41:39;;;;;;;;;;;;;;;;;;5094534;28;1941;-57
2024/01/03 13:44:04;;;;;;;;;;;;;;;;;;5094887;28;852;-57
2024/01/03 13:46:29;;;;;;;;;;;;;;;;;;5094644;28;833;-58
2024/01/03 13:48:58;;;;;;;;;;;;;;;;;;5094573;28;911;-58
2024/01/03 13:51:23;;;;;;;;;;;;;;;;;;5094371;28;848;-57
2024/01/03 13:53:49;;;;;;;;;;;;;;;;;;5094022;28;890;-59
2024/01/03 13:56:19;;;;;;;;;;;;;;;;;;5093634;28;979;-58
2024/01/03 13:58:46;;;;;;;;;;;;;;;;;;5093969;28;905;-57
2024/01/03 14:01:12;;;;;;;;;;;;;;;;;;5094456;28;891;-57
2024/01/03 14:03:37;;;;;;;;;;;;;;;;;;5093921;28;1891;-58
2024/01/03 14:06:03;;;;;;;;;;;;;;;;;;5093921;28;923;-58
2024/01/03 14:08:29;;;;;;;;;;;;;;;;;;5094151;28;912;-57
2024/01/03 14:10:54;;;;;;;;;;;;;;;;;;5093941;28;960;-57
2024/01/03 14:13:19;;;;;;;;;;;;;;;;;;5094067;28;887;-58
2024/01/03 14:15:45;;;;;;;;;;;;;;;;;;5094119;28;785;-58
2024/01/03 14:18:10;;;;;;;;;;;;;;;;;;5095428;28;949;-59
2024/01/03 14:20:35;;;;;;;;;;;;;;;;;;5098289;28;842;-57
2024/01/03 14:23:00;;;;;;;;;;;;;;;;;;5096693;28;1960;-57
2024/01/03 14:25:26;;;;;;;;;;;;;;;;;;5098096;28;896;-57
2024/01/03 14:27:53;;;;;;;;;;;;;;;;;;5098265;28;1034;-57
2024/01/03 14:30:18;;;;;;;;;;;;;;;;;;5096970;28;995;-57
2024/01/03 14:32:44;;;;;;;;;;;;;;;;;;5098002;28;859;-57
2024/01/03 14:35:09;;;;;;;;;;;;;;;;;;5097294;28;858;-58
2024/01/03 14:37:35;;;;;;;;;;;;;;;;;;5098247;28;845;-58
2024/01/03 14:40:11;;;;;;;;;;;;;;;;;;5096274;28;1059;-58
2024/01/03 14:42:38;;;;;;;;;;;;;;;;;;5096707;28;1901;-57
2024/01/03 14:45:04;;;;;;;;;;;;;;;;;;5097119;28;875;-57
2024/01/03 14:47:29;;;;;;;;;;;;;;;;;;5097560;28;864;-58
2024/01/03 14:49:55;;;;;;;;;;;;;;;;;;5097302;28;872;-58
2024/01/03 14:52:20;;;;;;;;;;;;;;;;;;5097023;28;875;-58
2024/01/03 14:54:46;;;;;;;;;;;;;;;;;;5096773;28;1020;-56
2024/01/03 14:57:11;;;;;;;;;;;;;;;;;;5096834;28;872;-57
2024/01/03 14:59:39;;;;;;;;;;;;;;;;;;5096107;28;816;-58
2024/01/03 15:02:04;;;;;;;;;;;;;;;;;;5097063;28;1951;-58
2024/01/03 15:04:30;;;;;;;;;;;;;;;;;;5096811;28;849;-58
2024/01/03 15:06:59;;;;;;;;;;;;;;;;;;5097114;28;801;-58
2024/01/03 15:09:25;;;;;;;;;;;;;;;;;;5096448;28;891;-57
2024/01/03 15:11:50;;;;;;;;;;;;;;;;;;5096686;28;944;-57
2024/01/03 15:14:16;;;;;;;;;;;;;;;;;;5096927;28;1073;-58
2024/01/03 15:16:41;;;;;;;;;;;;;;;;;;5096935;28;923;-58
2024/01/03 15:19:06;;;;;;;;;;;;;;;;;;5096928;28;987;-58
2024/01/03 15:21:32;;;;;;;;;;;;;;;;;;5096852;28;1882;-58
2024/01/03 15:23:58;;;;;;;;;;;;;;;;;;5096454;28;828;-57
2024/01/03 15:26:23;;;;;;;;;;;;;;;;;;5096219;28;1034;-57
2024/01/03 15:28:48;;;;;;;;;;;;;;;;;;5096346;28;1014;-57
2024/01/03 15:31:14;;;;;;;;;;;;;;;;;;5095354;28;820;-58
2024/01/03 15:33:40;;;;;;;;;;;;;;;;;;5096210;28;911;-58
2024/01/03 15:36:05;;;;;;;;;;;;;;;;;;5096378;28;864;-58
2024/01/03 15:38:31;;;;;;;;;;;;;;;;;;5096427;28;938;-57
2024/01/03 15:40:58;;;;;;;;;;;;;;;;;;5096220;28;842;-57
2024/01/03 15:43:23;;;;;;;;;;;;;;;;;;5096050;28;1972;-58
2024/01/03 15:45:49;;;;;;;;;;;;;;;;;;5095921;28;836;-57
2024/01/03 15:48:14;;;;;;;;;;;;;;;;;;5095704;28;919;-57
2024/01/03 15:50:40;;;;;;;;;;;;;;;;;;5094884;28;904;-58
2024/01/03 15:53:05;;;;;;;;;;;;;;;;;;5095762;28;951;-58
2024/01/03 15:55:30;;;;;;;;;;;;;;;;;;5094736;28;1161;-58
2024/01/03 15:57:55;;;;;;;;;;;;;;;;;;5095807;28;958;-58
2024/01/03 16:00:21;;;;;;;;;;;;;;;;;;5095568;28;895;-57
2024/01/03 16:02:46;;;;;;;;;;;;;;;;;;5095876;28;1906;-58
2024/01/03 16:05:11;;;;;;;;;;;;;;;;;;5095771;28;863;-58
2024/01/03 16:07:37;;;;;;;;;;;;;;;;;;5095739;28;944;-58
2024/01/03 16:10:02;;;;;;;;;;;;;;;;;;5095855;28;931;-58
2024/01/03 16:12:27;;;;;;;;;;;;;;;;;;5095337;28;824;-58
2024/01/03 16:14:56;;;;;;;;;;;;;;;;;;5095631;28;888;-57
2024/01/03 16:17:22;;;;;;;;;;;;;;;;;;5095928;28;879;-56
2024/01/03 16:19:47;;;;;;;;;;;;;;;;;;5095571;28;950;-58
2024/01/03 16:22:12;;;;;;;;;;;;;;;;;;5095575;28;1965;-58
2024/01/03 16:24:38;;;;;;;;;;;;;;;;;;5094997;28;844;-57
2024/01/03 16:27:06;;;;;;;;;;;;;;;;;;5095785;28;824;-57
2024/01/03 16:29:34;;;;;;;;;;;;;;;;;;5095885;28;867;-58
2024/01/03 16:32:00;;;;;;;;;;;;;;;;;;5095680;28;1123;-57
2024/01/03 16:34:25;;;;;;;;;;;;;;;;;;5095880;28;885;-58
2024/01/03 16:36:52;;;;;;;;;;;;;;;;;;5095548;28;999;-57
2024/01/03 16:39:20;;;;;;;;;;;;;;;;;;5095363;28;856;-58
2024/01/03 16:41:45;;;;;;;;;;;;;;;;;;5094985;28;1959;-58
2024/01/03 16:44:10;;;;;;;;;;;;;;;;;;5094356;28;900;-58
2024/01/03 16:46:36;;;;;;;;;;;;;;;;;;5095097;28;868;-58
2024/01/03 16:49:01;;;;;;;;;;;;;;;;;;5094530;28;801;-58
2024/01/03 16:51:26;;;;;;;;;;;;;;;;;;5094586;28;844;-58
2024/01/03 16:53:52;;;;;;;;;;;;;;;;;;5094365;28;895;-58
2024/01/03 16:56:17;;;;;;;;;;;;;;;;;;5094320;28;886;-58
2024/01/03 16:58:42;;;;;;;;;;;;;;;;;;5094152;28;639;-58
2024/01/03 17:01:07;;;;;;;;;;;;;;;;;;5094800;28;951;-57
2024/01/03 17:03:33;;;;;;;;;;;;;;;;;;5094854;28;1890;-57
2024/01/03 17:05:58;;;;;;;;;;;;;;;;;;5094212;28;880;-57